Time;durP1;ratioP1;P1;durP2;ratioP2;P2;SDS_P1;SDS_P2;PMS_P1;PMS_P2;Temp;Humidity;BMP_temperature;BMP_pressure;BME280_temperature;BME280_humidity;BME280_pressure;Samples;Min_cycle;Max_cycle;Signal;HPM_P1;HPM_P2
2021/01/30 00:00:28;;;;;;;47.25;38.13;;;;;;;6.14;63.25;99221.06;4975833;28;96581;-67
2021/01/30 00:02:55;;;;;;;49.00;40.78;;;;;;;6.12;62.97;99217.69;4974683;28;98544;-67
2021/01/30 00:05:22;;;;;;;49.55;42.55;;;;;;;6.07;63.84;99219.66;4975154;28;98417;-67
2021/01/30 00:07:48;;;;;;;65.03;42.60;;;;;;;6.09;63.25;99223.88;4975837;28;96549;-67
2021/01/30 00:10:15;;;;;;;47.58;40.92;;;;;;;5.95;64.00;99215.94;4975445;28;96862;-67
2021/01/30 00:12:42;;;;;;;49.97;41.10;;;;;;;6.04;63.44;99215.50;4975132;28;98731;-67
2021/01/30 00:15:10;;;;;;;47.05;41.95;;;;;;;6.01;63.60;99210.47;4974891;28;98472;-67
2021/01/30 00:17:37;;;;;;;50.50;41.25;;;;;;;6.03;63.32;99214.66;4975117;28;96971;-67
2021/01/30 00:20:05;;;;;;;47.88;41.92;;;;;;;6.00;63.49;99209.63;4974771;28;96870;-68
2021/01/30 00:22:31;;;;;;;49.13;40.42;;;;;;;6.04;62.88;99200.81;4974728;28;98633;-67
2021/01/30 00:24:58;;;;;;;46.17;39.78;;;;;;;6.03;63.20;99201.72;4975399;28;98633;-68
2021/01/30 00:27:24;;;;;;;46.03;36.25;;;;;;;6.05;63.05;99199.06;4978266;28;96879;-67
2021/01/30 00:29:52;;;;;;;49.13;41.53;;;;;;;6.10;62.40;99197.09;4979181;28;96628;-67
2021/01/30 00:32:19;;;;;;;51.08;40.58;;;;;;;6.05;62.70;99196.47;4969992;28;98415;-67
2021/01/30 00:34:46;;;;;;;49.30;41.35;;;;;;;6.10;62.77;99193.66;4964252;28;101424;-68
2021/01/30 00:37:21;;;;;;;48.85;39.88;;;;;;;6.13;62.48;99198.72;4967203;28;99416;-67
2021/01/30 00:39:48;;;;;;;44.90;38.13;;;;;;;6.00;62.51;99209.63;4967598;28;96690;-67
2021/01/30 00:42:15;;;;;;;49.25;36.38;;;;;;;5.85;62.98;99206.88;4965597;28;98639;-67
2021/01/30 00:44:41;;;;;;;45.00;37.92;;;;;;;5.86;62.72;99205.97;4968057;28;100468;-68
2021/01/30 00:47:08;;;;;;;50.30;38.25;;;;;;;5.84;63.06;99212.97;4969443;28;99713;-68
2021/01/30 00:49:35;;;;;;;47.05;36.83;;;;;;;5.74;63.15;99207.41;4961600;28;96794;-67
2021/01/30 00:52:02;;;;;;;41.25;36.20;;;;;;;5.74;63.44;99207.41;4981871;28;100373;-67
2021/01/30 00:54:29;;;;;;;42.55;35.28;;;;;;;5.96;64.95;99207.25;4953011;28;100539;-67
2021/01/30 00:56:55;;;;;;;44.78;39.88;;;;;;;6.01;64.23;99213.88;4969958;28;97354;-67
2021/01/30 00:59:25;;;;;;;45.90;38.40;;;;;;;5.99;63.53;99209.69;4959517;28;98113;-67
2021/01/30 01:01:52;;;;;;;43.97;39.25;;;;;;;5.84;63.22;99206.06;4966446;28;97359;-67
2021/01/30 01:04:27;;;;;;;47.97;37.47;;;;;;;5.86;62.68;99212.00;4968103;28;100426;-67
2021/01/30 01:06:53;;;;;;;48.95;35.90;;;;;;;5.93;62.57;99207.41;4967632;28;96915;-67
2021/01/30 01:09:20;;;;;;;42.47;36.50;;;;;;;5.93;62.23;99210.00;4968103;28;98033;-66
2021/01/30 01:11:48;;;;;;;41.65;36.22;;;;;;;5.93;62.39;99203.06;4968542;28;98675;-65
2021/01/30 01:14:14;;;;;;;43.03;34.92;;;;;;;5.90;62.42;99203.16;4967220;28;99069;-67
2021/01/30 01:16:40;;;;;;;36.33;32.38;;;;;;;5.92;62.22;99205.75;4967310;28;96633;-67
2021/01/30 01:19:07;;;;;;;42.75;34.10;;;;;;;5.98;61.92;99206.28;4965854;28;97584;-66
2021/01/30 01:21:33;;;;;;;39.47;32.47;;;;;;;5.99;61.77;99201.94;4963990;28;98914;-67
2021/01/30 01:24:00;;;;;;;35.90;32.10;;;;;;;6.01;61.90;99205.28;4969493;28;98694;-66
2021/01/30 01:26:26;;;;;;;37.30;33.30;;;;;;;5.97;62.07;99203.78;4964890;28;98025;-67
2021/01/30 01:28:53;;;;;;;37.35;31.63;;;;;;;5.97;61.83;99196.00;4963107;28;97236;-67
2021/01/30 01:31:19;;;;;;;31.70;28.33;;;;;;;6.00;61.44;99199.28;4964748;28;98705;-67
2021/01/30 01:33:46;;;;;;;37.72;30.17;;;;;;;5.99;61.14;99196.78;4967171;28;98373;-67
2021/01/30 01:36:13;;;;;;;34.20;23.52;;;;;;;6.08;60.82;99196.34;4964163;28;100243;-67
2021/01/30 01:38:40;;;;;;;23.10;18.73;;;;;;;6.11;59.50;99195.34;4965388;28;96677;-66
2021/01/30 01:41:06;;;;;;;21.63;19.35;;;;;;;6.14;59.87;99195.19;4967195;28;98540;-67
2021/01/30 01:43:33;;;;;;;21.60;17.45;;;;;;;6.21;59.36;99194.81;4965932;28;98523;-67
2021/01/30 01:46:25;;;;;;;15.60;12.80;;;;;;;6.30;58.50;99194.38;4967160;28;96756;-67
2021/01/30 01:48:54;;;;;;;8.55;7.70;;;;;;;6.38;56.84;99195.72;4964590;28;96843;-68
2021/01/30 01:51:26;;;;;;;6.95;6.22;;;;;;;6.47;57.12;99197.88;4961319;28;98986;-68
2021/01/30 01:53:52;;;;;;;7.68;5.32;;;;;;;6.56;56.04;99197.41;4963171;28;98674;-68
2021/01/30 01:56:23;;;;;;;5.75;4.88;;;;;;;6.60;55.77;99188.56;4965639;28;97332;-67
2021/01/30 01:58:51;;;;;;;4.20;3.60;;;;;;;6.65;55.20;99202.13;4950384;28;97019;-67
2021/01/30 02:01:17;;;;;;;3.78;2.92;;;;;;;6.74;54.80;99199.06;4947377;28;101555;-67
2021/01/30 02:03:46;;;;;;;3.58;2.03;;;;;;;6.83;54.53;99202.94;4945059;28;98621;-68
2021/01/30 02:06:12;;;;;;;5.65;5.15;;;;;;;6.89;55.01;99194.88;4951869;28;96766;-68
2021/01/30 02:08:39;;;;;;;6.55;4.57;;;;;;;6.95;54.64;99204.91;4980436;22;99613;-70
2021/01/30 02:11:05;;;;;;;2.75;2.17;;;;;;;7.00;54.08;99195.13;4962222;28;98502;-68
2021/01/30 02:13:51;;;;;;;2.50;1.75;;;;;;;7.06;53.74;99186.22;4967426;28;98490;-70
2021/01/30 02:17:01;;;;;;;1.67;1.50;;;;;;;7.12;53.12;99190.22;4965448;28;97312;-68
2021/01/30 02:19:30;;;;;;;1.73;1.52;;;;;;;7.18;52.92;99182.13;4944584;28;97742;-69
2021/01/30 02:22:09;;;;;;;1.55;1.50;;;;;;;7.25;52.61;99186.94;4944296;28;98444;-68
2021/01/30 02:24:56;;;;;;;1.00;1.00;;;;;;;7.32;51.80;99195.22;4949700;28;98622;-70
2021/01/30 02:27:49;;;;;;;1.90;1.73;;;;;;;7.36;52.40;99194.13;4971820;28;97040;-69
2021/01/30 02:30:42;;;;;;;1.38;1.27;;;;;;;7.42;52.21;99198.16;4965720;28;96681;-68
2021/01/30 02:33:27;;;;;;;1.27;1.25;;;;;;;7.43;52.10;99189.44;4965984;28;98515;-68
2021/01/30 02:36:32;;;;;;;1.25;1.20;;;;;;;7.48;51.78;99195.22;4964711;28;98580;-69
2021/01/30 02:39:03;;;;;;;;;;;;;;;7.51;51.31;99197.63;4961235;28;97096;-69
2021/01/30 02:41:31;;;;;;;4.07;1.10;;;;;;;7.54;51.61;99189.69;4964948;28;99062;-70
2021/01/30 02:43:59;;;;;;;1.13;1.02;;;;;;;7.57;51.18;99182.59;4979274;28;98716;-69
2021/01/30 02:46:29;;;;;;;2.05;1.42;;;;;;;7.61;50.42;99173.72;4961762;28;99684;-69
2021/01/30 02:48:57;;;;;;;1.27;1.17;;;;;;;7.63;50.52;99176.25;4960948;28;100062;-68
2021/01/30 02:51:25;;;;;;;1.10;1.10;;;;;;;7.61;50.23;99167.69;4946293;28;97060;-67
2021/01/30 02:53:54;;;;;;;1.08;1.00;;;;;;;7.65;50.16;99165.78;4962440;28;98585;-67
2021/01/30 02:56:20;;;;;;;4.03;1.85;;;;;;;7.66;49.47;99165.69;4948345;28;98584;-67
2021/01/30 02:58:51;;;;;;;1.13;1.02;;;;;;;7.68;48.99;99169.03;4963726;28;98793;-67
2021/01/30 03:01:18;;;;;;;1.23;1.15;;;;;;;7.71;49.06;99157.66;4980943;28;97077;-67
2021/01/30 03:03:44;;;;;;;1.13;1.00;;;;;;;7.72;48.66;99154.94;4962058;28;98651;-67
2021/01/30 03:06:39;;;;;;;1.17;1.08;;;;;;;7.74;48.55;99158.31;4964762;28;98434;-67
2021/01/30 03:09:44;;;;;;;1.20;1.10;;;;;;;7.75;48.53;99152.22;4959968;28;96833;-67
2021/01/30 03:12:20;;;;;;;1.30;1.20;;;;;;;7.80;48.15;99155.38;4967788;28;96845;-67
2021/01/30 03:15:01;;;;;;;2.25;0.90;;;;;;;7.84;47.53;99151.69;4974758;28;98421;-67
2021/01/30 03:17:28;;;;;;;1.38;0.90;;;;;;;7.84;47.71;99143.09;4976840;28;98832;-66
2021/01/30 03:19:55;;;;;;;0.75;0.75;;;;;;;7.85;47.67;99142.16;4956551;28;97323;-66
2021/01/30 03:22:21;;;;;;;0.90;0.90;;;;;;;7.87;47.39;99141.13;4962953;28;96696;-68
2021/01/30 03:24:48;;;;;;;0.90;0.90;;;;;;;7.90;47.02;99147.09;4978745;28;98578;-67
2021/01/30 03:27:44;;;;;;;1.88;1.30;;;;;;;7.90;47.22;99144.50;4960673;28;99699;-68
2021/01/30 03:30:11;;;;;;;2.00;1.55;;;;;;;7.92;47.45;99140.88;4961249;28;97165;-68
2021/01/30 03:32:37;;;;;;;1.20;1.10;;;;;;;7.95;46.94;99139.88;4969630;28;96659;-68
2021/01/30 03:35:05;;;;;;;1.63;1.52;;;;;;;7.97;45.82;99144.03;4963160;28;98700;-67
2021/01/30 03:37:32;;;;;;;0.82;0.82;;;;;;;7.99;46.62;99142.22;4965702;28;98532;-68
2021/01/30 03:39:58;;;;;;;2.58;0.90;;;;;;;8.00;46.18;99138.69;4960394;28;98888;-68
2021/01/30 03:42:25;;;;;;;1.40;1.30;;;;;;;8.03;46.38;99146.28;4960674;28;97515;-68
2021/01/30 03:44:51;;;;;;;3.67;1.25;;;;;;;8.01;46.16;99139.53;4963365;28;99422;-68
2021/01/30 03:47:18;;;;;;;2.90;1.73;;;;;;;8.05;45.92;99138.44;4963056;28;98544;-68
2021/01/30 03:49:44;;;;;;;2.45;1.98;;;;;;;8.07;46.21;99144.38;4961630;28;98637;-68
2021/01/30 03:52:10;;;;;;;1.60;1.50;;;;;;;8.08;46.71;99140.84;4966074;28;98901;-68
2021/01/30 03:54:37;;;;;;;2.67;1.42;;;;;;;8.08;46.13;99135.66;4961906;28;98417;-67
2021/01/30 03:57:03;;;;;;;1.40;1.30;;;;;;;8.11;45.81;99130.28;4960700;28;98432;-67
2021/01/30 03:59:30;;;;;;;1.00;1.00;;;;;;;8.13;45.72;99134.47;4979655;28;98490;-67
2021/01/30 04:01:56;;;;;;;1.55;1.45;;;;;;;8.16;45.10;99124.84;4965328;28;97669;-67
2021/01/30 04:04:23;;;;;;;1.00;1.00;;;;;;;8.18;45.62;99126.41;4961372;28;99134;-67
2021/01/30 04:06:49;;;;;;;1.88;0.90;;;;;;;8.20;45.31;99128.91;4958012;28;98593;-67
2021/01/30 04:09:17;;;;;;;1.35;1.35;;;;;;;8.20;45.61;99134.09;4971266;28;96689;-68
2021/01/30 04:11:43;;;;;;;1.05;0.80;;;;;;;8.21;45.20;99131.44;4977100;28;99490;-68
2021/01/30 04:14:09;;;;;;;0.93;0.90;;;;;;;8.23;44.88;99126.16;4962746;28;98723;-67
2021/01/30 04:16:36;;;;;;;1.20;1.20;;;;;;;8.24;44.93;99133.00;4961092;28;98656;-67
2021/01/30 04:19:03;;;;;;;0.70;0.70;;;;;;;8.25;44.94;99140.69;4961947;28;96788;-67
2021/01/30 04:21:29;;;;;;;0.95;0.88;;;;;;;8.26;44.33;99138.97;4963088;28;96760;-67
2021/01/30 04:23:56;;;;;;;0.70;0.70;;;;;;;8.29;44.20;99149.97;4961950;28;98842;-67
2021/01/30 04:26:22;;;;;;;1.33;1.23;;;;;;;8.29;44.07;99142.19;4962259;28;99658;-67
2021/01/30 04:28:49;;;;;;;1.33;1.02;;;;;;;8.30;44.67;99149.06;4966078;28;97321;-67
2021/01/30 04:31:16;;;;;;;0.85;0.85;;;;;;;8.30;44.28;99156.84;4959000;28;99212;-66
2021/01/30 04:33:43;;;;;;;1.58;1.10;;;;;;;8.31;44.28;99155.06;4957496;28;98602;-66
2021/01/30 04:36:10;;;;;;;1.75;1.10;;;;;;;8.31;44.25;99155.94;4974591;28;98463;-65
2021/01/30 04:38:36;;;;;;;1.02;1.02;;;;;;;8.33;43.79;99150.66;4963887;28;99754;-66
2021/01/30 04:41:14;;;;;;;0.98;0.88;;;;;;;8.35;43.47;99146.19;4964841;28;96853;-66
2021/01/30 04:43:50;;;;;;;3.42;1.20;;;;;;;8.37;43.52;99137.44;4954826;28;100352;-66
2021/01/30 04:46:42;;;;;;;1.17;1.00;;;;;;;8.38;43.73;99131.31;4946514;28;98591;-66
2021/01/30 04:49:11;;;;;;;1.75;1.60;;;;;;;8.43;43.32;99127.63;4960550;28;99832;-66
2021/01/30 04:51:58;;;;;;;1.30;1.10;;;;;;;8.43;43.32;99118.06;4973359;28;99133;-66
2021/01/30 04:54:34;;;;;;;0.80;0.80;;;;;;;8.45;43.77;99120.56;4959332;28;100692;-66
2021/01/30 04:57:19;;;;;;;0.82;0.82;;;;;;;8.47;43.47;99121.28;4961112;28;98665;-67
2021/01/30 04:59:53;;;;;;;;;;;;;;;8.49;43.23;99119.47;4964217;28;97477;-67
2021/01/30 05:02:42;;;;;;;0.70;0.70;;;;;;;8.52;43.13;99121.84;4961170;28;97345;-67
2021/01/30 05:05:11;;;;;;;2.30;0.75;;;;;;;8.53;43.06;99121.78;4943598;28;98425;-65
2021/01/30 05:07:58;;;;;;;0.77;0.77;;;;;;;8.54;42.84;99114.81;4944099;28;98425;-67
2021/01/30 05:10:42;;;;;;;0.77;0.77;;;;;;;8.58;42.68;99124.13;4975694;28;99143;-67
2021/01/30 05:13:15;;;;;;;0.80;0.80;;;;;;;8.58;42.85;99122.34;4980346;28;97898;-66
2021/01/30 05:16:01;;;;;;;0.82;0.80;;;;;;;8.60;42.65;99114.47;4964315;28;98653;-66
2021/01/30 05:18:57;;;;;;;0.90;0.90;;;;;;;8.62;42.49;99120.38;4948186;28;98415;-67
2021/01/30 05:21:44;;;;;;;0.82;0.82;;;;;;;8.64;42.12;99108.16;4962429;28;97551;-66
2021/01/30 05:24:11;;;;;;;0.80;0.80;;;;;;;8.66;42.13;99107.13;4976848;28;96708;-67
2021/01/30 05:26:51;;;;;;;0.82;0.82;;;;;;;8.67;42.34;99107.97;4949496;28;98441;-67
2021/01/30 05:29:29;;;;;;;0.90;0.90;;;;;;;8.69;41.52;99103.53;4964473;28;98581;-67
2021/01/30 05:32:07;;;;;;;0.70;0.70;;;;;;;8.71;41.79;99101.66;4948417;28;97959;-66
2021/01/30 05:34:51;;;;;;;1.13;0.70;;;;;;;8.71;42.06;99104.25;4962816;28;99831;-67
2021/01/30 05:37:39;;;;;;;0.77;0.77;;;;;;;8.73;42.01;99104.97;4962633;28;98604;-66
2021/01/30 05:40:20;;;;;;;1.80;0.73;;;;;;;8.75;41.32;99105.75;4966619;28;98529;-66
2021/01/30 05:43:01;;;;;;;2.15;0.70;;;;;;;8.77;41.24;99109.06;4967205;28;97194;-67
2021/01/30 05:45:46;;;;;;;0.80;0.80;;;;;;;8.79;41.73;99114.16;4962761;28;100091;-67
2021/01/30 05:48:36;;;;;;;1.08;1.08;;;;;;;8.80;41.28;99108.91;4964182;28;100855;-67
2021/01/30 05:51:11;;;;;;;0.77;0.77;;;;;;;8.80;41.63;99106.31;4964826;28;98812;-66
2021/01/30 05:53:38;;;;;;;2.33;1.15;;;;;;;8.82;41.77;99112.22;4980102;28;98341;-66
2021/01/30 05:56:04;;;;;;;1.20;0.80;;;;;;;8.81;40.24;99118.38;4983203;28;97912;-67
2021/01/30 05:58:30;;;;;;;3.13;2.22;;;;;;;8.46;43.29;99138.63;4964513;28;98564;-67
2021/01/30 06:01:27;;;;;;;5.53;2.35;;;;;;;8.05;44.73;99156.59;4978786;28;98597;-66
2021/01/30 06:03:54;;;;;;;7.70;2.70;;;;;;;7.69;45.95;99157.75;4962763;28;97451;-66
2021/01/30 06:06:21;;;;;;;3.38;2.70;;;;;;;7.53;46.81;99154.31;4969375;28;96942;-66
2021/01/30 06:08:54;;;;;;;6.75;4.18;;;;;;;7.36;47.36;99163.03;4985787;28;98522;-66
2021/01/30 06:11:21;;;;;;;6.18;4.70;;;;;;;6.86;49.22;99160.50;4989043;28;99138;-67
2021/01/30 06:14:05;;;;;;;11.75;7.25;;;;;;;6.85;49.61;99171.78;4974534;28;96557;-67
2021/01/30 06:16:41;;;;;;;9.13;7.25;;;;;;;6.79;49.54;99178.94;4975148;28;96575;-66
2021/01/30 06:19:12;;;;;;;10.20;7.22;;;;;;;6.74;49.77;99180.94;4970015;28;98401;-66
2021/01/30 06:21:38;;;;;;;8.07;7.28;;;;;;;6.62;50.98;99191.09;4968846;28;98415;-63
2021/01/30 06:24:09;;;;;;;9.93;7.70;;;;;;;6.78;50.64;99194.59;4972852;28;96600;-66
2021/01/30 06:26:44;;;;;;;12.68;8.20;;;;;;;6.70;50.98;99192.38;4973553;28;96620;-67
2021/01/30 06:29:49;;;;;;;11.43;9.15;;;;;;;6.83;50.69;99183.06;4954814;28;99106;-66
2021/01/30 06:32:19;;;;;;;;;;;;;;;6.90;50.42;99180.16;4968295;28;98506;-62
2021/01/30 06:34:49;;;;;;;9.48;7.75;;;;;;;6.83;50.74;99190.84;4972605;28;98202;-63
2021/01/30 06:37:26;;;;;;;8.35;7.47;;;;;;;6.74;51.07;99185.28;4973117;28;97451;-67
2021/01/30 06:40:13;;;;;;;8.15;7.20;;;;;;;6.74;51.09;99178.34;4972191;28;98390;-69
2021/01/30 06:42:40;;;;;;;14.18;9.25;;;;;;;6.77;50.82;99187.72;4973695;28;98461;-68
2021/01/30 06:45:24;;;;;;;18.95;11.10;;;;;;;6.77;51.25;99201.50;4971854;28;96659;-68
2021/01/30 06:47:53;;;;;;;15.50;10.82;;;;;;;6.82;51.07;99201.28;4973117;28;96976;-68
2021/01/30 06:50:39;;;;;;;17.45;10.13;;;;;;;6.71;51.57;99195.78;4972526;28;98440;-68
2021/01/30 06:53:16;;;;;;;15.38;9.77;;;;;;;6.73;51.48;99192.22;4972376;28;98452;-68
2021/01/30 06:55:42;;;;;;;12.32;9.38;;;;;;;6.84;51.17;99202.03;4972104;28;96764;-68
2021/01/30 06:58:11;;;;;;;17.65;10.95;;;;;;;6.81;51.54;99197.84;4974471;28;96654;-67
2021/01/30 07:00:38;;;;;;;14.07;10.50;;;;;;;6.85;51.61;99198.53;4972893;28;98597;-67
2021/01/30 07:03:12;;;;;;;14.88;11.93;;;;;;;6.90;51.26;99193.09;4972581;28;97499;-67
2021/01/30 07:05:55;;;;;;;19.83;13.17;;;;;;;6.92;50.98;99192.09;4972159;28;97215;-66
2021/01/30 07:09:09;;;;;;;16.35;12.85;;;;;;;6.92;51.47;99193.84;4972809;28;96762;-66
2021/01/30 07:11:47;;;;;;;15.55;10.90;;;;;;;6.86;51.94;99191.59;4952758;28;98363;-69
2021/01/30 07:14:24;;;;;;;47.08;12.80;;;;;;;6.92;51.71;99181.72;4972763;28;98575;-69
2021/01/30 07:16:57;;;;;;;12.93;11.35;;;;;;;6.86;52.51;99191.59;4969951;28;97066;-68
2021/01/30 07:19:47;;;;;;;14.60;13.03;;;;;;;6.96;52.57;99200.56;4970075;28;97758;-68
2021/01/30 07:22:17;;;;;;;16.27;11.98;;;;;;;7.10;52.26;99200.69;4988939;28;98531;-68
2021/01/30 07:25:07;;;;;;;21.38;13.65;;;;;;;7.20;51.87;99196.69;4972594;28;98438;-68
2021/01/30 07:27:36;;;;;;;14.82;12.20;;;;;;;7.48;50.64;99203.00;4972238;28;96702;-68
2021/01/30 07:30:08;;;;;;;16.98;12.80;;;;;;;7.74;50.72;99204.19;4953017;28;96543;-69
2021/01/30 07:32:51;;;;;;;16.00;13.68;;;;;;;8.15;49.87;99214.88;4955956;28;97325;-69
2021/01/30 07:35:22;;;;;;;14.90;13.32;;;;;;;8.52;49.65;99221.41;4969762;28;98856;-69
2021/01/30 07:38:02;;;;;;;21.95;14.30;;;;;;;8.83;48.56;99223.03;4948060;28;96983;-73
2021/01/30 07:40:37;;;;;;;51.40;31.92;;;;;;;8.84;49.13;99209.16;4966494;28;98379;-73
2021/01/30 07:43:12;;;;;;;23.02;17.13;;;;;;;9.30;47.04;99201.16;4973837;28;98687;-72
2021/01/30 07:46:05;;;;;;;21.63;17.27;;;;;;;9.48;47.54;99206.16;4972978;28;97520;-73
2021/01/30 07:48:44;;;;;;;28.95;19.92;;;;;;;9.71;46.65;99221.19;4973932;28;97057;-75
2021/01/30 07:51:13;;;;;;;34.17;25.20;;;;;;;9.80;46.58;99224.94;4983554;28;96569;-73
2021/01/30 07:53:40;;;;;;;39.65;26.48;;;;;;;10.15;46.04;99214.91;4972809;28;98404;-73
2021/01/30 07:56:19;;;;;;;34.47;24.75;;;;;;;10.59;45.02;99205.97;4987548;28;98508;-73
2021/01/30 07:59:01;;;;;;;28.75;20.65;;;;;;;11.01;43.64;99202.25;4973778;28;96586;-71
2021/01/30 08:01:36;;;;;;;26.10;18.27;;;;;;;10.88;43.72;99210.09;4962696;28;96757;-72
2021/01/30 08:04:45;;;;;;;21.77;18.17;;;;;;;11.23;43.22;99209.44;4960240;28;98530;-71
2021/01/30 08:07:24;;;;;;;23.85;18.58;;;;;;;11.59;42.44;99207.81;4952608;28;98482;-72
2021/01/30 08:10:05;;;;;;;21.33;18.35;;;;;;;12.10;41.99;99210.28;4956642;28;97837;-71
2021/01/30 08:13:08;;;;;;;29.42;17.48;;;;;;;11.87;41.79;99193.66;4957506;28;96723;-73
2021/01/30 08:15:38;;;;;;;27.63;20.40;;;;;;;11.56;42.38;99190.59;4959209;28;98587;-73
2021/01/30 08:18:26;;;;;;;22.25;17.30;;;;;;;11.58;41.90;99187.88;4976215;28;98545;-72
2021/01/30 08:21:18;;;;;;;31.05;22.02;;;;;;;11.71;41.71;99179.06;4966292;28;97853;-72
2021/01/30 08:24:09;;;;;;;36.30;24.38;;;;;;;11.40;42.46;99169.97;4949928;28;96852;-72
2021/01/30 08:26:38;;;;;;;29.38;21.73;;;;;;;11.04;43.60;99164.72;4964820;28;98451;-73
2021/01/30 08:29:14;;;;;;;33.40;21.33;;;;;;;10.80;44.14;99162.81;4974116;28;98429;-72
2021/01/30 08:31:58;;;;;;;36.63;21.17;;;;;;;10.51;44.34;99163.97;4958874;28;96666;-71
2021/01/30 08:34:27;;;;;;;27.50;16.55;;;;;;;9.94;45.18;99163.28;4964659;28;97174;-70
2021/01/30 08:36:59;;;;;;;27.52;17.48;;;;;;;10.08;45.09;99154.59;4972640;28;98401;-70
2021/01/30 08:39:29;;;;;;;24.50;15.23;;;;;;;10.09;45.21;99163.22;4970600;28;98566;-70
2021/01/30 08:42:07;;;;;;;25.60;16.42;;;;;;;9.75;46.26;99170.63;4988262;28;96731;-71
2021/01/30 08:44:52;;;;;;;29.85;16.25;;;;;;;9.73;46.63;99172.47;4972401;28;97699;-73
2021/01/30 08:47:22;;;;;;;28.55;15.70;;;;;;;9.76;46.41;99167.06;4975116;28;98394;-72
2021/01/30 08:50:09;;;;;;;21.48;13.90;;;;;;;9.72;46.84;99165.59;4964879;28;98408;-74
2021/01/30 08:52:52;;;;;;;22.90;15.10;;;;;;;9.79;46.16;99168.63;4974349;28;96685;-74
2021/01/30 08:55:22;;;;;;;15.85;13.95;;;;;;;9.64;46.98;99165.22;4969963;28;97075;-66
2021/01/30 08:57:48;;;;;;;15.60;13.45;;;;;;;9.72;46.94;99170.78;4974651;28;98594;-65
2021/01/30 09:00:27;;;;;;;20.02;13.88;;;;;;;9.59;47.27;99167.31;4975808;28;98421;-75
2021/01/30 09:02:58;;;;;;;24.73;13.73;;;;;;;9.90;46.85;99166.16;4974561;28;96900;-75
2021/01/30 09:05:25;;;;;;;21.38;15.55;;;;;;;10.09;46.70;99163.22;4971986;28;96857;-75
2021/01/30 09:07:53;;;;;;;16.42;13.40;;;;;;;10.12;46.66;99179.50;4973140;28;98727;-75
2021/01/30 09:10:22;;;;;;;21.42;16.25;;;;;;;10.11;46.70;99169.16;4973779;28;98639;-75
2021/01/30 09:12:51;;;;;;;20.92;13.27;;;;;;;10.14;46.39;99172.41;4975317;28;96804;-75
2021/01/30 09:15:37;;;;;;;14.13;12.60;;;;;;;10.20;46.17;99176.38;4975355;28;96602;-75
2021/01/30 09:18:24;;;;;;;14.55;11.77;;;;;;;10.30;46.11;99177.47;4973179;28;98495;-75
2021/01/30 09:20:54;;;;;;;18.35;11.05;;;;;;;10.30;45.44;99180.09;4973253;28;97485;-75
2021/01/30 09:23:43;;;;;;;14.20;11.57;;;;;;;10.34;45.58;99178.97;4975734;28;96604;-75
2021/01/30 09:26:27;;;;;;;14.55;10.32;;;;;;;10.32;44.92;99174.75;4974989;28;96841;-75
2021/01/30 09:28:56;;;;;;;17.65;11.13;;;;;;;10.37;45.10;99172.69;4970775;28;98602;-75
2021/01/30 09:31:22;;;;;;;19.15;11.65;;;;;;;10.45;44.81;99173.88;4974570;28;98505;-75
2021/01/30 09:33:55;;;;;;;13.32;10.77;;;;;;;10.44;44.43;99172.22;4974556;28;96466;-75
2021/01/30 09:36:32;;;;;;;12.65;9.70;;;;;;;10.44;44.08;99169.59;4976115;28;96701;-74
2021/01/30 09:39:01;;;;;;;10.60;7.72;;;;;;;10.45;43.09;99166.06;4974303;28;98516;-75
2021/01/30 09:41:34;;;;;;;12.27;8.98;;;;;;;10.47;43.37;99163.34;4966283;28;98559;-74
2021/01/30 09:44:04;;;;;;;12.43;9.38;;;;;;;10.47;43.83;99160.72;4965777;28;97046;-74
2021/01/30 09:46:39;;;;;;;18.58;12.10;;;;;;;10.44;44.14;99147.94;4966648;28;98451;-75
2021/01/30 09:49:09;;;;;;;18.73;10.75;;;;;;;10.51;44.31;99140.53;4975491;28;97849;-75
2021/01/30 09:51:41;;;;;;;17.55;12.02;;;;;;;10.46;44.69;99146.03;4961242;28;98561;-75
2021/01/30 09:54:09;;;;;;;21.20;12.15;;;;;;;10.53;44.73;99126.44;4940554;28;97843;-75
2021/01/30 09:56:36;;;;;;;18.98;11.20;;;;;;;10.56;45.16;99128.84;4963344;28;97284;-74
2021/01/30 09:59:02;;;;;;;17.15;12.73;;;;;;;10.53;44.92;99133.44;4963890;28;98487;-75
2021/01/30 10:01:40;;;;;;;24.40;12.48;;;;;;;10.53;45.27;99130.81;4979205;28;99285;-74
2021/01/30 10:04:33;;;;;;;20.50;12.57;;;;;;;10.30;45.35;99121.94;4964580;28;97219;-73
2021/01/30 10:07:08;;;;;;;29.63;13.02;;;;;;;10.42;45.65;99113.31;4962508;28;100697;-75
2021/01/30 10:09:45;;;;;;;22.23;14.18;;;;;;;10.44;45.80;99119.25;4962453;28;98681;-75
2021/01/30 10:12:12;;;;;;;16.05;12.88;;;;;;;10.40;45.37;99123.84;4964333;28;98570;-75
2021/01/30 10:14:45;;;;;;;18.58;12.90;;;;;;;10.49;45.69;99125.84;4979256;28;97327;-74
2021/01/30 10:17:26;;;;;;;21.17;13.63;;;;;;;10.48;45.39;99129.34;4979579;28;97427;-74
2021/01/30 10:20:04;;;;;;;16.23;12.10;;;;;;;10.61;45.47;99131.16;4978362;28;98538;-75
2021/01/30 10:22:42;;;;;;;17.48;13.50;;;;;;;10.51;44.77;99133.53;4964622;28;99512;-74
2021/01/30 10:25:10;;;;;;;18.73;11.88;;;;;;;10.60;44.60;99132.06;4966886;28;99811;-74
2021/01/30 10:27:37;;;;;;;16.48;12.10;;;;;;;10.58;43.99;99123.53;4962655;28;97506;-69
2021/01/30 10:30:05;;;;;;;19.48;11.43;;;;;;;10.53;44.31;99109.97;4962915;28;98605;-68
2021/01/30 10:32:51;;;;;;;18.98;12.85;;;;;;;10.52;44.12;99118.72;4971259;28;98549;-70
2021/01/30 10:35:33;;;;;;;13.95;10.95;;;;;;;10.61;44.18;99111.13;4952943;28;96585;-73
2021/01/30 10:38:08;;;;;;;18.52;11.57;;;;;;;10.66;43.37;99097.78;4956725;28;96806;-73
2021/01/30 10:40:36;;;;;;;16.10;11.23;;;;;;;10.71;43.96;99099.16;4976485;28;97607;-74
2021/01/30 10:43:05;;;;;;;17.55;11.23;;;;;;;10.69;43.51;99093.19;4975566;28;97489;-74
2021/01/30 10:45:32;;;;;;;20.42;12.70;;;;;;;10.58;44.25;99093.09;4963795;28;97025;-74
2021/01/30 10:48:01;;;;;;;17.35;13.00;;;;;;;10.59;44.85;99084.31;4965574;28;97800;-73
2021/01/30 10:50:39;;;;;;;28.30;14.90;;;;;;;10.68;44.69;99075.06;4960875;28;98698;-73
2021/01/30 10:53:21;;;;;;;33.13;16.17;;;;;;;10.72;44.88;99074.75;4968117;28;98392;-74
2021/01/30 10:55:51;;;;;;;25.02;14.93;;;;;;;10.64;44.90;99070.97;4963186;28;97407;-73
2021/01/30 10:58:24;;;;;;;23.67;13.90;;;;;;;10.70;45.29;99065.34;4965779;28;97137;-74
2021/01/30 11:01:03;;;;;;;18.88;12.07;;;;;;;10.64;44.80;99063.16;4964698;28;98415;-74
2021/01/30 11:03:40;;;;;;;20.27;13.75;;;;;;;10.69;45.16;99059.31;4964715;28;98530;-74
2021/01/30 11:06:33;;;;;;;16.40;12.52;;;;;;;10.77;44.91;99057.97;4964136;28;97772;-73
2021/01/30 11:09:25;;;;;;;17.77;11.75;;;;;;;10.68;45.32;99049.81;4948361;28;97313;-74
2021/01/30 11:12:15;;;;;;;19.23;13.48;;;;;;;10.74;44.56;99046.78;4961667;28;98574;-73
2021/01/30 11:14:41;;;;;;;15.07;12.30;;;;;;;10.74;44.42;99036.34;4968909;28;98811;-74
2021/01/30 11:17:27;;;;;;;12.98;11.65;;;;;;;10.81;43.95;99033.31;4945905;28;96719;-74
2021/01/30 11:19:54;;;;;;;12.98;9.82;;;;;;;10.65;44.11;99031.81;4962665;28;97332;-74
2021/01/30 11:22:23;;;;;;;11.18;9.30;;;;;;;10.75;44.08;99027.59;4966526;28;98490;-74
2021/01/30 11:25:11;;;;;;;11.82;9.75;;;;;;;10.80;44.10;99013.41;4962922;28;99257;-74
2021/01/30 11:27:46;;;;;;;13.65;11.63;;;;;;;10.75;44.55;99000.69;4957961;28;96824;-74
2021/01/30 11:30:15;;;;;;;12.82;9.07;;;;;;;10.75;44.31;99006.75;4964037;28;96901;-74
2021/01/30 11:33:17;;;;;;;12.43;11.00;;;;;;;10.75;45.28;99000.69;4963163;28;98788;-66
2021/01/30 11:35:51;;;;;;;15.07;10.35;;;;;;;10.77;45.71;98998.00;4970043;28;98584;-67
2021/01/30 11:38:19;;;;;;;10.73;8.90;;;;;;;10.88;44.91;98998.91;4972136;28;96697;-71
2021/01/30 11:40:46;;;;;;;13.07;10.10;;;;;;;10.96;45.26;98999.19;4972576;28;96638;-72
2021/01/30 11:43:13;;;;;;;12.13;9.23;;;;;;;10.93;44.40;98994.19;4972400;28;98598;-69
2021/01/30 11:45:40;;;;;;;15.43;9.45;;;;;;;11.02;44.57;98998.75;4970061;28;98707;-71
2021/01/30 11:48:07;;;;;;;21.45;10.52;;;;;;;11.00;44.67;98998.03;4974869;28;96617;-69
2021/01/30 11:50:33;;;;;;;11.32;9.25;;;;;;;11.02;44.49;99009.19;4988645;28;96644;-65
2021/01/30 11:53:15;;;;;;;13.13;8.10;;;;;;;11.17;44.51;98995.97;4972320;28;98402;-71
2021/01/30 11:55:42;;;;;;;11.80;8.98;;;;;;;11.11;44.27;98989.44;4972033;28;98690;-67
2021/01/30 11:58:09;;;;;;;11.73;8.90;;;;;;;11.18;44.28;98987.19;4967301;28;96803;-69
2021/01/30 12:00:35;;;;;;;10.00;8.63;;;;;;;11.22;44.33;98994.69;4961467;28;97066;-69